Startpagina
METAR-TAF:

METAR-TAF

Vliegvelden :

Internationale Luchthaven Don Mueang

Bangkok, Thailand

breedte: 13-54-45N, lengte: 100-36-24E, hoogte: 4 m

Actueel weer

Dit bericht is 22 minuten geleden gemaakt, om 21:30 UTC
Wind 6 kt uit het noordnoordoosten
Temperatuur 26°C
Vochtigheid 84%
Druk 1010 hPa
Zicht: 9000 m
Weinig wolken op 4000 ft

METAR: VTBD 102130Z 02006KT 9000 FEW040 26/23 Q1010 NOSIG

Tijdstip: 04:52 (21:52 UTC)

Verwachting

Dit bericht is 4 uur en het 52 minuten geleden gemaakt, om 17:00 UTC
Verwachting geldig van 10 om 18 UTC tot 11 om 24 UTC
Wind 5 kt uit het noordnoordwesten
Zicht 10 km of meer
Weinig wolken op 3000 ft
Wijzigt naar
van 11 om 00 UTC tot 11 om 02 UTC
Wind 8 kt uit het oostnoordoosten
Wijzigt naar
van 11 om 11 UTC tot 11 om 13 UTC
Wind 5 kt uit het noorden

TAF: VTBD 101700Z 1018/1124 34005KT 9999 FEW030 BECMG 1100/1102 06008KT BECMG 1111/1113 36005KT

Waarnemingen en weersverwachtingen van meer dan 4000 vliegvelden (METAR en TAF).

De beschikbare stations zijn de gele en rode punten op de kaart.

Ga met uw muis naar het station om de naam te zien.

Klik dan om waarnemingen en weersverwachtingen te zien.

kaart wijzigen: klik op de groene knoppen met een zwart kruis om in te zoomen, op de groene knop met een streepje om uit te zoomen of op de groene pijlen voor aangrenzende kaarten.


METAR-TAF: